sensor_id;sensor_type;location;lat;lon;timestamp;P1;durP1;ratioP1;P2;durP2;ratioP2
5967;SDS011;3010;51.028;4.170;2023-05-10T00:00:59;13.47;;;8.50;;
5967;SDS011;3010;51.028;4.170;2023-05-10T00:03:25;13.13;;;7.77;;
5967;SDS011;3010;51.028;4.170;2023-05-10T00:05:52;14.97;;;7.90;;
5967;SDS011;3010;51.028;4.170;2023-05-10T00:08:18;13.57;;;7.57;;
5967;SDS011;3010;51.028;4.170;2023-05-10T00:10:45;15.37;;;8.90;;
5967;SDS011;3010;51.028;4.170;2023-05-10T00:13:12;14.87;;;8.07;;
5967;SDS011;3010;51.028;4.170;2023-05-10T00:15:38;11.97;;;7.83;;
5967;SDS011;3010;51.028;4.170;2023-05-10T00:18:05;11.00;;;8.40;;
5967;SDS011;3010;51.028;4.170;2023-05-10T00:20:31;17.33;;;9.17;;
5967;SDS011;3010;51.028;4.170;2023-05-10T00:22:58;17.00;;;8.43;;
5967;SDS011;3010;51.028;4.170;2023-05-10T00:25:25;14.47;;;9.73;;
5967;SDS011;3010;51.028;4.170;2023-05-10T00:27:51;8.90;;;7.77;;
5967;SDS011;3010;51.028;4.170;2023-05-10T00:30:18;12.73;;;9.03;;
5967;SDS011;3010;51.028;4.170;2023-05-10T00:32:44;16.73;;;9.47;;
5967;SDS011;3010;51.028;4.170;2023-05-10T00:35:11;18.77;;;10.90;;
5967;SDS011;3010;51.028;4.170;2023-05-10T00:37:37;19.40;;;11.70;;
5967;SDS011;3010;51.028;4.170;2023-05-10T00:40:05;21.25;;;11.55;;
5967;SDS011;3010;51.028;4.170;2023-05-10T00:42:31;18.60;;;9.77;;
5967;SDS011;3010;51.028;4.170;2023-05-10T00:44:58;16.07;;;9.67;;
5967;SDS011;3010;51.028;4.170;2023-05-10T00:47:24;17.83;;;9.37;;
5967;SDS011;3010;51.028;4.170;2023-05-10T00:49:51;13.40;;;9.33;;
5967;SDS011;3010;51.028;4.170;2023-05-10T00:52:17;16.43;;;10.23;;
5967;SDS011;3010;51.028;4.170;2023-05-10T00:54:44;15.83;;;10.27;;
5967;SDS011;3010;51.028;4.170;2023-05-10T00:57:10;18.73;;;10.47;;
5967;SDS011;3010;51.028;4.170;2023-05-10T00:59:37;22.07;;;12.60;;
5967;SDS011;3010;51.028;4.170;2023-05-10T01:02:04;16.20;;;10.47;;
5967;SDS011;3010;51.028;4.170;2023-05-10T01:04:30;23.00;;;13.43;;
5967;SDS011;3010;51.028;4.170;2023-05-10T01:06:57;18.10;;;10.33;;
5967;SDS011;3010;51.028;4.170;2023-05-10T01:09:23;14.73;;;9.90;;
5967;SDS011;3010;51.028;4.170;2023-05-10T01:11:50;14.70;;;10.13;;
5967;SDS011;3010;51.028;4.170;2023-05-10T01:14:17;19.17;;;10.97;;
5967;SDS011;3010;51.028;4.170;2023-05-10T01:16:43;19.10;;;11.00;;
5967;SDS011;3010;51.028;4.170;2023-05-10T01:19:12;20.70;;;11.33;;
5967;SDS011;3010;51.028;4.170;2023-05-10T01:21:43;17.43;;;11.17;;
5967;SDS011;3010;51.028;4.170;2023-05-10T01:32:33;18.93;;;11.40;;
5967;SDS011;3010;51.028;4.170;2023-05-10T01:37:29;19.63;;;11.43;;
5967;SDS011;3010;51.028;4.170;2023-05-10T01:40:17;27.50;;;12.93;;
5967;SDS011;3010;51.028;4.170;2023-05-10T01:42:54;23.07;;;13.03;;
5967;SDS011;3010;51.028;4.170;2023-05-10T01:45:21;21.40;;;12.40;;
5967;SDS011;3010;51.028;4.170;2023-05-10T01:47:58;31.23;;;17.42;;
5967;SDS011;3010;51.028;4.170;2023-05-10T01:50:24;28.47;;;14.80;;
5967;SDS011;3010;51.028;4.170;2023-05-10T01:52:55;27.43;;;14.97;;
5967;SDS011;3010;51.028;4.170;2023-05-10T01:55:18;22.20;;;14.23;;
5967;SDS011;3010;51.028;4.170;2023-05-10T01:57:45;24.07;;;14.27;;
5967;SDS011;3010;51.028;4.170;2023-05-10T02:00:11;25.97;;;14.97;;
5967;SDS011;3010;51.028;4.170;2023-05-10T02:02:39;28.93;;;15.73;;
5967;SDS011;3010;51.028;4.170;2023-05-10T02:05:05;27.40;;;15.60;;
5967;SDS011;3010;51.028;4.170;2023-05-10T02:07:31;27.53;;;15.07;;
5967;SDS011;3010;51.028;4.170;2023-05-10T02:09:58;29.87;;;15.97;;
5967;SDS011;3010;51.028;4.170;2023-05-10T02:12:24;31.27;;;16.97;;
5967;SDS011;3010;51.028;4.170;2023-05-10T02:14:51;34.37;;;16.93;;
5967;SDS011;3010;51.028;4.170;2023-05-10T02:17:18;33.57;;;16.80;;
5967;SDS011;3010;51.028;4.170;2023-05-10T02:19:44;32.80;;;17.93;;
5967;SDS011;3010;51.028;4.170;2023-05-10T02:22:11;45.73;;;17.60;;
5967;SDS011;3010;51.028;4.170;2023-05-10T02:24:37;44.27;;;22.30;;
5967;SDS011;3010;51.028;4.170;2023-05-10T02:27:04;35.90;;;18.33;;
5967;SDS011;3010;51.028;4.170;2023-05-10T02:29:31;35.40;;;17.70;;
5967;SDS011;3010;51.028;4.170;2023-05-10T02:31:57;36.97;;;18.40;;
5967;SDS011;3010;51.028;4.170;2023-05-10T02:34:27;37.93;;;17.80;;
5967;SDS011;3010;51.028;4.170;2023-05-10T02:36:53;35.90;;;18.33;;
5967;SDS011;3010;51.028;4.170;2023-05-10T02:39:20;42.13;;;18.67;;
5967;SDS011;3010;51.028;4.170;2023-05-10T02:41:46;46.73;;;23.77;;
5967;SDS011;3010;51.028;4.170;2023-05-10T02:44:14;38.83;;;18.60;;
5967;SDS011;3010;51.028;4.170;2023-05-10T02:46:40;38.67;;;18.27;;
5967;SDS011;3010;51.028;4.170;2023-05-10T02:49:06;39.43;;;18.13;;
5967;SDS011;3010;51.028;4.170;2023-05-10T02:51:34;39.10;;;18.10;;
5967;SDS011;3010;51.028;4.170;2023-05-10T02:54:07;38.37;;;18.23;;
5967;SDS011;3010;51.028;4.170;2023-05-10T02:56:29;45.23;;;22.97;;
5967;SDS011;3010;51.028;4.170;2023-05-10T02:58:55;42.03;;;22.93;;
5967;SDS011;3010;51.028;4.170;2023-05-10T03:01:22;49.28;;;24.00;;
5967;SDS011;3010;51.028;4.170;2023-05-10T03:03:49;47.85;;;24.92;;
5967;SDS011;3010;51.028;4.170;2023-05-10T03:06:15;44.70;;;21.27;;
5967;SDS011;3010;51.028;4.170;2023-05-10T03:08:42;36.83;;;19.27;;
5967;SDS011;3010;51.028;4.170;2023-05-10T03:11:16;37.90;;;19.17;;
5967;SDS011;3010;51.028;4.170;2023-05-10T03:17:03;37.23;;;18.50;;
5967;SDS011;3010;51.028;4.170;2023-05-10T03:19:54;39.37;;;20.20;;
5967;SDS011;3010;51.028;4.170;2023-05-10T03:22:21;48.72;;;24.50;;
5967;SDS011;3010;51.028;4.170;2023-05-10T03:24:55;43.50;;;20.87;;
5967;SDS011;3010;51.028;4.170;2023-05-10T03:27:22;38.93;;;18.10;;
5967;SDS011;3010;51.028;4.170;2023-05-10T03:29:48;40.93;;;19.60;;
5967;SDS011;3010;51.028;4.170;2023-05-10T03:32:14;42.57;;;19.67;;
5967;SDS011;3010;51.028;4.170;2023-05-10T03:34:41;44.03;;;19.63;;
5967;SDS011;3010;51.028;4.170;2023-05-10T03:37:07;36.20;;;18.60;;
5967;SDS011;3010;51.028;4.170;2023-05-10T03:39:34;41.47;;;19.73;;
5967;SDS011;3010;51.028;4.170;2023-05-10T03:42:01;49.90;;;24.35;;
5967;SDS011;3010;51.028;4.170;2023-05-10T03:44:27;42.47;;;20.50;;
5967;SDS011;3010;51.028;4.170;2023-05-10T03:46:54;41.63;;;20.27;;
5967;SDS011;3010;51.028;4.170;2023-05-10T03:49:20;39.27;;;18.07;;
5967;SDS011;3010;51.028;4.170;2023-05-10T03:51:47;38.97;;;19.13;;
5967;SDS011;3010;51.028;4.170;2023-05-10T03:54:13;43.53;;;20.00;;
5967;SDS011;3010;51.028;4.170;2023-05-10T03:56:40;36.03;;;18.00;;
5967;SDS011;3010;51.028;4.170;2023-05-10T03:59:07;39.47;;;18.60;;
5967;SDS011;3010;51.028;4.170;2023-05-10T04:01:33;49.57;;;24.03;;
5967;SDS011;3010;51.028;4.170;2023-05-10T04:04:00;50.17;;;22.30;;
5967;SDS011;3010;51.028;4.170;2023-05-10T04:06:26;41.70;;;18.70;;
5967;SDS011;3010;51.028;4.170;2023-05-10T04:08:53;37.43;;;18.73;;
5967;SDS011;3010;51.028;4.170;2023-05-10T04:11:20;36.70;;;18.90;;
5967;SDS011;3010;51.028;4.170;2023-05-10T04:13:46;37.30;;;18.80;;
5967;SDS011;3010;51.028;4.170;2023-05-10T04:16:13;41.20;;;18.40;;
5967;SDS011;3010;51.028;4.170;2023-05-10T04:18:39;38.00;;;17.83;;
5967;SDS011;3010;51.028;4.170;2023-05-10T04:21:15;35.80;;;18.30;;
5967;SDS011;3010;51.028;4.170;2023-05-10T04:23:38;37.37;;;18.37;;
5967;SDS011;3010;51.028;4.170;2023-05-10T04:26:05;38.23;;;19.07;;
5967;SDS011;3010;51.028;4.170;2023-05-10T04:28:32;40.60;;;18.73;;
5967;SDS011;3010;51.028;4.170;2023-05-10T04:31:04;34.70;;;18.57;;
5967;SDS011;3010;51.028;4.170;2023-05-10T04:33:30;35.27;;;18.47;;
5967;SDS011;3010;51.028;4.170;2023-05-10T04:35:57;38.37;;;18.87;;
5967;SDS011;3010;51.028;4.170;2023-05-10T04:38:23;31.37;;;17.70;;
5967;SDS011;3010;51.028;4.170;2023-05-10T04:40:50;32.37;;;17.93;;
5967;SDS011;3010;51.028;4.170;2023-05-10T04:43:17;34.00;;;18.03;;
5967;SDS011;3010;51.028;4.170;2023-05-10T04:45:43;36.80;;;18.77;;
5967;SDS011;3010;51.028;4.170;2023-05-10T04:48:10;35.30;;;18.53;;
5967;SDS011;3010;51.028;4.170;2023-05-10T04:50:36;44.77;;;23.70;;
5967;SDS011;3010;51.028;4.170;2023-05-10T04:53:03;40.30;;;22.57;;
5967;SDS011;3010;51.028;4.170;2023-05-10T04:55:30;39.17;;;20.47;;
5967;SDS011;3010;51.028;4.170;2023-05-10T04:57:56;30.07;;;16.87;;
5967;SDS011;3010;51.028;4.170;2023-05-10T05:00:23;32.83;;;17.13;;
5967;SDS011;3010;51.028;4.170;2023-05-10T05:02:49;31.23;;;16.90;;
5967;SDS011;3010;51.028;4.170;2023-05-10T05:05:16;29.73;;;17.33;;
5967;SDS011;3010;51.028;4.170;2023-05-10T05:07:43;30.13;;;17.80;;
5967;SDS011;3010;51.028;4.170;2023-05-10T05:10:09;35.33;;;18.23;;
5967;SDS011;3010;51.028;4.170;2023-05-10T05:12:36;32.37;;;18.07;;
5967;SDS011;3010;51.028;4.170;2023-05-10T05:15:02;30.73;;;17.20;;
5967;SDS011;3010;51.028;4.170;2023-05-10T05:17:32;32.43;;;17.30;;
5967;SDS011;3010;51.028;4.170;2023-05-10T05:19:58;29.90;;;17.83;;
5967;SDS011;3010;51.028;4.170;2023-05-10T05:22:25;33.33;;;17.70;;
5967;SDS011;3010;51.028;4.170;2023-05-10T05:24:51;36.63;;;18.83;;
5967;SDS011;3010;51.028;4.170;2023-05-10T05:27:18;36.73;;;18.33;;
5967;SDS011;3010;51.028;4.170;2023-05-10T05:29:45;28.77;;;17.73;;
5967;SDS011;3010;51.028;4.170;2023-05-10T05:32:11;33.97;;;18.47;;
5967;SDS011;3010;51.028;4.170;2023-05-10T05:34:38;38.87;;;19.13;;
5967;SDS011;3010;51.028;4.170;2023-05-10T05:37:04;32.67;;;18.43;;
5967;SDS011;3010;51.028;4.170;2023-05-10T05:39:31;33.07;;;18.40;;
5967;SDS011;3010;51.028;4.170;2023-05-10T05:41:58;33.80;;;18.63;;
5967;SDS011;3010;51.028;4.170;2023-05-10T05:44:24;34.40;;;19.07;;
5967;SDS011;3010;51.028;4.170;2023-05-10T05:46:51;33.40;;;19.13;;
5967;SDS011;3010;51.028;4.170;2023-05-10T05:49:17;36.20;;;19.13;;
5967;SDS011;3010;51.028;4.170;2023-05-10T05:51:44;34.27;;;18.97;;
5967;SDS011;3010;51.028;4.170;2023-05-10T05:54:11;36.70;;;19.77;;
5967;SDS011;3010;51.028;4.170;2023-05-10T05:56:37;33.50;;;18.83;;
5967;SDS011;3010;51.028;4.170;2023-05-10T05:59:04;34.60;;;19.40;;
5967;SDS011;3010;51.028;4.170;2023-05-10T06:01:30;31.30;;;18.33;;
5967;SDS011;3010;51.028;4.170;2023-05-10T06:03:57;32.63;;;17.80;;
5967;SDS011;3010;51.028;4.170;2023-05-10T06:06:24;32.10;;;18.17;;
5967;SDS011;3010;51.028;4.170;2023-05-10T06:08:50;33.67;;;19.37;;
5967;SDS011;3010;51.028;4.170;2023-05-10T06:11:17;30.37;;;18.70;;
5967;SDS011;3010;51.028;4.170;2023-05-10T06:13:43;31.90;;;18.60;;
5967;SDS011;3010;51.028;4.170;2023-05-10T06:16:10;35.17;;;19.03;;
5967;SDS011;3010;51.028;4.170;2023-05-10T06:18:36;36.97;;;20.87;;
5967;SDS011;3010;51.028;4.170;2023-05-10T06:21:03;32.67;;;18.87;;
5967;SDS011;3010;51.028;4.170;2023-05-10T06:23:30;35.87;;;19.70;;
5967;SDS011;3010;51.028;4.170;2023-05-10T06:25:56;36.57;;;20.77;;
5967;SDS011;3010;51.028;4.170;2023-05-10T06:28:23;36.30;;;19.90;;
5967;SDS011;3010;51.028;4.170;2023-05-10T06:30:49;41.73;;;25.43;;
5967;SDS011;3010;51.028;4.170;2023-05-10T06:33:16;38.80;;;21.30;;
5967;SDS011;3010;51.028;4.170;2023-05-10T06:35:43;37.30;;;20.07;;
5967;SDS011;3010;51.028;4.170;2023-05-10T06:38:09;36.83;;;20.40;;
5967;SDS011;3010;51.028;4.170;2023-05-10T06:40:36;42.17;;;21.83;;
5967;SDS011;3010;51.028;4.170;2023-05-10T06:43:02;37.47;;;21.07;;
5967;SDS011;3010;51.028;4.170;2023-05-10T06:45:29;34.20;;;20.60;;
5967;SDS011;3010;51.028;4.170;2023-05-10T06:47:56;36.20;;;19.50;;
5967;SDS011;3010;51.028;4.170;2023-05-10T06:50:22;37.53;;;20.53;;
5967;SDS011;3010;51.028;4.170;2023-05-10T06:52:49;33.53;;;18.67;;
5967;SDS011;3010;51.028;4.170;2023-05-10T06:55:15;37.27;;;20.43;;
5967;SDS011;3010;51.028;4.170;2023-05-10T06:57:42;36.13;;;19.07;;
5967;SDS011;3010;51.028;4.170;2023-05-10T07:00:09;36.00;;;20.83;;
5967;SDS011;3010;51.028;4.170;2023-05-10T07:02:35;38.10;;;20.33;;
5967;SDS011;3010;51.028;4.170;2023-05-10T07:05:02;38.33;;;20.73;;
5967;SDS011;3010;51.028;4.170;2023-05-10T07:07:28;43.20;;;22.50;;
5967;SDS011;3010;51.028;4.170;2023-05-10T07:09:55;39.60;;;22.40;;
5967;SDS011;3010;51.028;4.170;2023-05-10T07:12:21;38.50;;;21.60;;
5967;SDS011;3010;51.028;4.170;2023-05-10T07:14:48;41.53;;;25.70;;
5967;SDS011;3010;51.028;4.170;2023-05-10T07:17:15;43.85;;;25.85;;
5967;SDS011;3010;51.028;4.170;2023-05-10T07:19:41;42.17;;;24.87;;
5967;SDS011;3010;51.028;4.170;2023-05-10T07:22:08;39.47;;;21.93;;
5967;SDS011;3010;51.028;4.170;2023-05-10T07:24:35;44.23;;;21.30;;
5967;SDS011;3010;51.028;4.170;2023-05-10T07:27:01;34.50;;;20.43;;
5967;SDS011;3010;51.028;4.170;2023-05-10T07:29:28;31.47;;;19.23;;
5967;SDS011;3010;51.028;4.170;2023-05-10T07:31:54;33.30;;;19.77;;
5967;SDS011;3010;51.028;4.170;2023-05-10T07:34:21;34.77;;;20.13;;
5967;SDS011;3010;51.028;4.170;2023-05-10T07:36:47;39.00;;;19.27;;
5967;SDS011;3010;51.028;4.170;2023-05-10T07:39:14;34.33;;;19.23;;
5967;SDS011;3010;51.028;4.170;2023-05-10T07:41:41;33.43;;;19.93;;
5967;SDS011;3010;51.028;4.170;2023-05-10T07:44:07;38.33;;;18.87;;
5967;SDS011;3010;51.028;4.170;2023-05-10T07:46:34;27.87;;;17.60;;
5967;SDS011;3010;51.028;4.170;2023-05-10T07:49:00;30.67;;;18.07;;
5967;SDS011;3010;51.028;4.170;2023-05-10T07:51:27;29.77;;;16.73;;
5967;SDS011;3010;51.028;4.170;2023-05-10T07:53:54;33.03;;;16.93;;
5967;SDS011;3010;51.028;4.170;2023-05-10T07:56:21;27.97;;;15.50;;
5967;SDS011;3010;51.028;4.170;2023-05-10T07:58:47;33.20;;;16.17;;
5967;SDS011;3010;51.028;4.170;2023-05-10T08:01:13;27.40;;;15.73;;
5967;SDS011;3010;51.028;4.170;2023-05-10T08:03:40;38.20;;;21.10;;
5967;SDS011;3010;51.028;4.170;2023-05-10T08:06:07;35.20;;;18.73;;
5967;SDS011;3010;51.028;4.170;2023-05-10T08:08:33;30.50;;;16.80;;
5967;SDS011;3010;51.028;4.170;2023-05-10T08:11:00;34.00;;;17.50;;
5967;SDS011;3010;51.028;4.170;2023-05-10T08:13:26;35.73;;;16.80;;
5967;SDS011;3010;51.028;4.170;2023-05-10T08:15:53;30.80;;;16.73;;
5967;SDS011;3010;51.028;4.170;2023-05-10T08:18:20;32.53;;;17.00;;
5967;SDS011;3010;51.028;4.170;2023-05-10T08:20:46;30.70;;;16.00;;
5967;SDS011;3010;51.028;4.170;2023-05-10T08:23:13;36.30;;;18.83;;
5967;SDS011;3010;51.028;4.170;2023-05-10T08:25:39;32.40;;;17.37;;
5967;SDS011;3010;51.028;4.170;2023-05-10T08:28:06;31.87;;;17.40;;
5967;SDS011;3010;51.028;4.170;2023-05-10T08:30:33;31.40;;;17.67;;
5967;SDS011;3010;51.028;4.170;2023-05-10T08:32:59;31.03;;;15.83;;
5967;SDS011;3010;51.028;4.170;2023-05-10T08:35:26;30.77;;;19.17;;
5967;SDS011;3010;51.028;4.170;2023-05-10T08:37:52;28.47;;;16.60;;
5967;SDS011;3010;51.028;4.170;2023-05-10T08:40:19;29.30;;;15.20;;
5967;SDS011;3010;51.028;4.170;2023-05-10T08:42:54;26.07;;;18.23;;
5967;SDS011;3010;51.028;4.170;2023-05-10T08:45:15;26.87;;;15.83;;
5967;SDS011;3010;51.028;4.170;2023-05-10T08:47:42;27.33;;;15.13;;
5967;SDS011;3010;51.028;4.170;2023-05-10T08:50:08;25.77;;;14.40;;
5967;SDS011;3010;51.028;4.170;2023-05-10T08:52:36;24.03;;;14.40;;
5967;SDS011;3010;51.028;4.170;2023-05-10T08:55:01;22.03;;;13.00;;
5967;SDS011;3010;51.028;4.170;2023-05-10T08:57:28;18.63;;;12.30;;
5967;SDS011;3010;51.028;4.170;2023-05-10T08:59:55;24.37;;;11.83;;
5967;SDS011;3010;51.028;4.170;2023-05-10T09:02:21;19.10;;;11.87;;
5967;SDS011;3010;51.028;4.170;2023-05-10T09:04:48;20.47;;;11.43;;
5967;SDS011;3010;51.028;4.170;2023-05-10T09:07:14;18.80;;;11.37;;
5967;SDS011;3010;51.028;4.170;2023-05-10T09:09:41;16.73;;;10.63;;
5967;SDS011;3010;51.028;4.170;2023-05-10T09:12:08;16.53;;;10.40;;
5967;SDS011;3010;51.028;4.170;2023-05-10T09:14:34;21.47;;;13.10;;
5967;SDS011;3010;51.028;4.170;2023-05-10T09:17:01;20.15;;;12.80;;
5967;SDS011;3010;51.028;4.170;2023-05-10T09:19:27;15.80;;;11.10;;
5967;SDS011;3010;51.028;4.170;2023-05-10T09:21:54;20.50;;;13.50;;
5967;SDS011;3010;51.028;4.170;2023-05-10T09:24:24;14.40;;;10.23;;
5967;SDS011;3010;51.028;4.170;2023-05-10T09:26:47;17.83;;;10.80;;
5967;SDS011;3010;51.028;4.170;2023-05-10T09:29:14;15.77;;;10.83;;
5967;SDS011;3010;51.028;4.170;2023-05-10T09:31:47;21.20;;;11.60;;
5967;SDS011;3010;51.028;4.170;2023-05-10T09:34:20;14.97;;;9.57;;
5967;SDS011;3010;51.028;4.170;2023-05-10T09:39:35;18.67;;;11.03;;
5967;SDS011;3010;51.028;4.170;2023-05-10T09:42:05;18.57;;;11.80;;
5967;SDS011;3010;51.028;4.170;2023-05-10T09:44:31;22.17;;;10.87;;
5967;SDS011;3010;51.028;4.170;2023-05-10T09:46:57;18.97;;;11.27;;
5967;SDS011;3010;51.028;4.170;2023-05-10T09:49:24;20.23;;;11.30;;
5967;SDS011;3010;51.028;4.170;2023-05-10T09:52:25;20.67;;;11.53;;
5967;SDS011;3010;51.028;4.170;2023-05-10T09:54:29;17.80;;;11.43;;
5967;SDS011;3010;51.028;4.170;2023-05-10T09:56:56;19.23;;;13.17;;
5967;SDS011;3010;51.028;4.170;2023-05-10T09:59:23;17.40;;;11.53;;
5967;SDS011;3010;51.028;4.170;2023-05-10T10:01:53;14.00;;;9.87;;
5967;SDS011;3010;51.028;4.170;2023-05-10T10:04:15;14.17;;;10.10;;
5967;SDS011;3010;51.028;4.170;2023-05-10T10:06:42;14.87;;;10.30;;
5967;SDS011;3010;51.028;4.170;2023-05-10T10:09:09;16.10;;;11.43;;
5967;SDS011;3010;51.028;4.170;2023-05-10T10:11:36;16.13;;;10.53;;
5967;SDS011;3010;51.028;4.170;2023-05-10T10:14:02;14.70;;;10.33;;
5967;SDS011;3010;51.028;4.170;2023-05-10T10:16:29;12.83;;;9.70;;
5967;SDS011;3010;51.028;4.170;2023-05-10T10:18:55;11.17;;;9.37;;
5967;SDS011;3010;51.028;4.170;2023-05-10T10:21:22;13.37;;;9.23;;
5967;SDS011;3010;51.028;4.170;2023-05-10T10:23:48;12.73;;;9.57;;
5967;SDS011;3010;51.028;4.170;2023-05-10T10:26:15;11.23;;;9.43;;
5967;SDS011;3010;51.028;4.170;2023-05-10T10:28:49;12.20;;;9.47;;
5967;SDS011;3010;51.028;4.170;2023-05-10T10:34:17;11.37;;;9.07;;
5967;SDS011;3010;51.028;4.170;2023-05-10T10:36:44;12.07;;;10.03;;
5967;SDS011;3010;51.028;4.170;2023-05-10T10:39:10;13.90;;;11.50;;
5967;SDS011;3010;51.028;4.170;2023-05-10T10:41:37;12.17;;;10.60;;
5967;SDS011;3010;51.028;4.170;2023-05-10T10:49:51;14.27;;;9.57;;
5967;SDS011;3010;51.028;4.170;2023-05-10T10:55:15;10.67;;;9.10;;
5967;SDS011;3010;51.028;4.170;2023-05-10T10:57:53;13.23;;;9.57;;
5967;SDS011;3010;51.028;4.170;2023-05-10T11:00:22;9.90;;;8.90;;
5967;SDS011;3010;51.028;4.170;2023-05-10T11:02:48;13.13;;;10.77;;
5967;SDS011;3010;51.028;4.170;2023-05-10T11:08:15;10.43;;;9.20;;
5967;SDS011;3010;51.028;4.170;2023-05-10T11:13:28;11.63;;;9.03;;
5967;SDS011;3010;51.028;4.170;2023-05-10T11:15:57;10.23;;;9.07;;
5967;SDS011;3010;51.028;4.170;2023-05-10T11:18:24;12.17;;;9.07;;
5967;SDS011;3010;51.028;4.170;2023-05-10T11:20:57;11.27;;;10.00;;
5967;SDS011;3010;51.028;4.170;2023-05-10T11:23:31;12.47;;;9.70;;
5967;SDS011;3010;51.028;4.170;2023-05-10T11:25:58;11.40;;;9.37;;
5967;SDS011;3010;51.028;4.170;2023-05-10T11:28:24;10.03;;;8.67;;
5967;SDS011;3010;51.028;4.170;2023-05-10T11:30:51;13.63;;;9.77;;
5967;SDS011;3010;51.028;4.170;2023-05-10T11:33:17;11.30;;;9.93;;
5967;SDS011;3010;51.028;4.170;2023-05-10T11:35:44;12.90;;;10.07;;
5967;SDS011;3010;51.028;4.170;2023-05-10T11:38:11;12.63;;;10.27;;
5967;SDS011;3010;51.028;4.170;2023-05-10T11:40:37;13.70;;;11.07;;
5967;SDS011;3010;51.028;4.170;2023-05-10T11:43:04;11.73;;;9.60;;
5967;SDS011;3010;51.028;4.170;2023-05-10T11:45:33;11.87;;;8.73;;
5967;SDS011;3010;51.028;4.170;2023-05-10T11:48:00;14.17;;;9.40;;
5967;SDS011;3010;51.028;4.170;2023-05-10T11:50:26;11.20;;;9.03;;
5967;SDS011;3010;51.028;4.170;2023-05-10T11:52:53;10.27;;;8.60;;
5967;SDS011;3010;51.028;4.170;2023-05-10T11:55:19;10.20;;;9.13;;
5967;SDS011;3010;51.028;4.170;2023-05-10T11:57:46;12.53;;;9.97;;
5967;SDS011;3010;51.028;4.170;2023-05-10T12:00:13;9.87;;;8.53;;
5967;SDS011;3010;51.028;4.170;2023-05-10T12:02:39;10.70;;;8.43;;
5967;SDS011;3010;51.028;4.170;2023-05-10T12:05:06;11.88;;;10.70;;
5967;SDS011;3010;51.028;4.170;2023-05-10T12:07:32;10.53;;;9.43;;
5967;SDS011;3010;51.028;4.170;2023-05-10T12:10:03;9.93;;;8.93;;
5967;SDS011;3010;51.028;4.170;2023-05-10T12:12:36;10.47;;;8.63;;
5967;SDS011;3010;51.028;4.170;2023-05-10T12:15:01;9.60;;;8.40;;
5967;SDS011;3010;51.028;4.170;2023-05-10T12:17:28;9.77;;;8.77;;
5967;SDS011;3010;51.028;4.170;2023-05-10T12:19:58;9.43;;;8.50;;
5967;SDS011;3010;51.028;4.170;2023-05-10T12:22:21;10.00;;;8.90;;
5967;SDS011;3010;51.028;4.170;2023-05-10T12:24:48;10.90;;;9.60;;
5967;SDS011;3010;51.028;4.170;2023-05-10T12:27:14;10.27;;;9.17;;
5967;SDS011;3010;51.028;4.170;2023-05-10T12:29:41;9.50;;;8.27;;
5967;SDS011;3010;51.028;4.170;2023-05-10T12:32:07;11.17;;;9.20;;
5967;SDS011;3010;51.028;4.170;2023-05-10T12:34:34;9.27;;;8.30;;
5967;SDS011;3010;51.028;4.170;2023-05-10T12:37:00;9.87;;;8.87;;
5967;SDS011;3010;51.028;4.170;2023-05-10T12:39:49;10.13;;;8.40;;
5967;SDS011;3010;51.028;4.170;2023-05-10T12:42:06;10.63;;;8.70;;
5967;SDS011;3010;51.028;4.170;2023-05-10T12:44:32;11.95;;;10.75;;
5967;SDS011;3010;51.028;4.170;2023-05-10T12:46:59;12.90;;;9.10;;
5967;SDS011;3010;51.028;4.170;2023-05-10T12:49:25;13.30;;;9.97;;
5967;SDS011;3010;51.028;4.170;2023-05-10T12:51:52;10.80;;;8.87;;
5967;SDS011;3010;51.028;4.170;2023-05-10T12:54:18;13.17;;;9.23;;
5967;SDS011;3010;51.028;4.170;2023-05-10T12:56:45;10.20;;;8.57;;
5967;SDS011;3010;51.028;4.170;2023-05-10T12:59:12;9.20;;;8.30;;
5967;SDS011;3010;51.028;4.170;2023-05-10T13:01:38;13.07;;;10.85;;
5967;SDS011;3010;51.028;4.170;2023-05-10T13:04:05;12.40;;;10.30;;
5967;SDS011;3010;51.028;4.170;2023-05-10T13:06:31;10.63;;;9.27;;
5967;SDS011;3010;51.028;4.170;2023-05-10T13:08:58;13.60;;;9.07;;
5967;SDS011;3010;51.028;4.170;2023-05-10T13:11:25;11.87;;;9.60;;
5967;SDS011;3010;51.028;4.170;2023-05-10T13:13:51;13.87;;;9.90;;
5967;SDS011;3010;51.028;4.170;2023-05-10T13:16:18;11.83;;;9.57;;
5967;SDS011;3010;51.028;4.170;2023-05-10T13:18:44;13.47;;;10.80;;
5967;SDS011;3010;51.028;4.170;2023-05-10T13:21:11;15.00;;;11.35;;
5967;SDS011;3010;51.028;4.170;2023-05-10T13:23:38;12.23;;;10.13;;
5967;SDS011;3010;51.028;4.170;2023-05-10T13:26:04;11.03;;;9.70;;
5967;SDS011;3010;51.028;4.170;2023-05-10T13:28:31;13.03;;;10.07;;
5967;SDS011;3010;51.028;4.170;2023-05-10T13:30:58;13.23;;;9.83;;
5967;SDS011;3010;51.028;4.170;2023-05-10T13:33:24;14.67;;;10.47;;
5967;SDS011;3010;51.028;4.170;2023-05-10T13:35:51;12.10;;;10.10;;
5967;SDS011;3010;51.028;4.170;2023-05-10T13:38:17;12.47;;;10.57;;
5967;SDS011;3010;51.028;4.170;2023-05-10T13:40:44;15.13;;;10.83;;
5967;SDS011;3010;51.028;4.170;2023-05-10T13:43:11;12.57;;;10.43;;
5967;SDS011;3010;51.028;4.170;2023-05-10T13:45:37;16.07;;;11.17;;
5967;SDS011;3010;51.028;4.170;2023-05-10T13:48:04;14.00;;;10.37;;
5967;SDS011;3010;51.028;4.170;2023-05-10T13:50:30;14.10;;;12.60;;
5967;SDS011;3010;51.028;4.170;2023-05-10T13:52:57;12.10;;;10.33;;
5967;SDS011;3010;51.028;4.170;2023-05-10T13:55:23;13.33;;;11.67;;
5967;SDS011;3010;51.028;4.170;2023-05-10T13:57:50;15.33;;;10.87;;
5967;SDS011;3010;51.028;4.170;2023-05-10T14:00:17;12.80;;;11.13;;
5967;SDS011;3010;51.028;4.170;2023-05-10T14:02:43;14.27;;;11.63;;
5967;SDS011;3010;51.028;4.170;2023-05-10T14:05:10;18.13;;;13.43;;
5967;SDS011;3010;51.028;4.170;2023-05-10T14:07:36;12.83;;;11.13;;
5967;SDS011;3010;51.028;4.170;2023-05-10T14:10:03;15.15;;;13.00;;
5967;SDS011;3010;51.028;4.170;2023-05-10T14:12:30;13.00;;;11.60;;
5967;SDS011;3010;51.028;4.170;2023-05-10T14:14:56;14.90;;;12.70;;
5967;SDS011;3010;51.028;4.170;2023-05-10T14:17:23;13.13;;;11.47;;
5967;SDS011;3010;51.028;4.170;2023-05-10T14:19:49;13.63;;;11.43;;
5967;SDS011;3010;51.028;4.170;2023-05-10T14:22:16;13.83;;;11.53;;
5967;SDS011;3010;51.028;4.170;2023-05-10T14:24:43;13.63;;;11.50;;
5967;SDS011;3010;51.028;4.170;2023-05-10T14:27:09;16.10;;;11.50;;
5967;SDS011;3010;51.028;4.170;2023-05-10T14:29:36;15.27;;;11.77;;
5967;SDS011;3010;51.028;4.170;2023-05-10T14:32:02;15.20;;;12.00;;
5967;SDS011;3010;51.028;4.170;2023-05-10T14:34:29;13.07;;;10.77;;
5967;SDS011;3010;51.028;4.170;2023-05-10T14:36:56;17.47;;;11.60;;
5967;SDS011;3010;51.028;4.170;2023-05-10T14:39:22;11.07;;;9.57;;
5967;SDS011;3010;51.028;4.170;2023-05-10T14:41:49;16.00;;;10.93;;
5967;SDS011;3010;51.028;4.170;2023-05-10T14:44:15;10.43;;;9.43;;
5967;SDS011;3010;51.028;4.170;2023-05-10T14:46:42;14.20;;;10.10;;
5967;SDS011;3010;51.028;4.170;2023-05-10T14:49:08;14.30;;;10.70;;
5967;SDS011;3010;51.028;4.170;2023-05-10T14:51:35;15.67;;;11.57;;
5967;SDS011;3010;51.028;4.170;2023-05-10T14:54:02;20.73;;;13.10;;
5967;SDS011;3010;51.028;4.170;2023-05-10T14:56:28;21.03;;;13.03;;
5967;SDS011;3010;51.028;4.170;2023-05-10T14:58:55;19.67;;;13.83;;
5967;SDS011;3010;51.028;4.170;2023-05-10T15:01:21;17.43;;;13.00;;
5967;SDS011;3010;51.028;4.170;2023-05-10T15:03:48;17.83;;;12.67;;
5967;SDS011;3010;51.028;4.170;2023-05-10T15:06:15;21.50;;;12.70;;
5967;SDS011;3010;51.028;4.170;2023-05-10T15:08:41;23.97;;;16.50;;
5967;SDS011;3010;51.028;4.170;2023-05-10T15:11:08;21.05;;;16.20;;
5967;SDS011;3010;51.028;4.170;2023-05-10T15:13:34;20.65;;;15.82;;
5967;SDS011;3010;51.028;4.170;2023-05-10T15:16:01;20.13;;;13.57;;
5967;SDS011;3010;51.028;4.170;2023-05-10T15:18:28;18.33;;;12.57;;
5967;SDS011;3010;51.028;4.170;2023-05-10T15:20:54;17.30;;;12.60;;
5967;SDS011;3010;51.028;4.170;2023-05-10T15:23:21;22.07;;;14.73;;